Time;durP1;ratioP1;P1;durP2;ratioP2;P2;SDS_P1;SDS_P2;PMS_P1;PMS_P2;Temp;Humidity;BMP_temperature;BMP_pressure;BME280_temperature;BME280_humidity;BME280_pressure;Samples;Min_cycle;Max_cycle;Signal;HPM_P1;HPM_P2
2023/04/03 00:01:47;;;;;;;4.45;0.80;;;19.80;99.90;;;;;;4976374;28;20239;-76
2023/04/03 00:04:19;;;;;;;4.32;1.02;;;19.60;99.90;;;;;;4976577;28;20231;-76
2023/04/03 00:06:52;;;;;;;4.28;0.90;;;19.60;99.90;;;;;;4976277;28;20204;-76
2023/04/03 00:09:23;;;;;;;2.08;0.50;;;19.60;99.90;;;;;;4976676;28;20273;-85
2023/04/03 00:11:54;;;;;;;2.13;0.63;;;19.60;99.90;;;;;;4976363;28;20199;-76
2023/04/03 00:14:25;;;;;;;4.03;0.70;;;19.60;99.90;;;;;;4976498;28;20199;-76
2023/04/03 00:16:56;;;;;;;4.65;0.65;;;19.50;99.90;;;;;;4976573;28;20207;-75
2023/04/03 00:19:27;;;;;;;5.20;1.08;;;19.40;99.90;;;;;;4976527;28;20201;-76
2023/04/03 00:22:00;;;;;;;2.72;0.70;;;19.40;99.90;;;;;;4976396;28;20295;-76
2023/04/03 00:24:31;;;;;;;4.07;1.00;;;19.40;99.90;;;;;;4976007;28;20256;-76
2023/04/03 00:27:02;;;;;;;6.53;1.75;;;19.40;99.90;;;;;;4976107;28;20651;-76
2023/04/03 00:29:33;;;;;;;3.50;1.60;;;19.40;99.90;;;;;;4976023;28;20551;-76
2023/04/03 00:32:04;;;;;;;6.28;1.92;;;19.50;99.90;;;;;;4976229;28;20196;-75
2023/04/03 00:34:36;;;;;;;7.05;2.08;;;19.60;99.90;;;;;;4975855;28;20192;-75
2023/04/03 00:37:09;;;;;;;7.25;2.20;;;19.60;99.90;;;;;;4975719;28;20269;-75
2023/04/03 00:39:40;;;;;;;5.60;1.58;;;19.60;99.90;;;;;;4976000;28;20192;-76
2023/04/03 00:42:11;;;;;;;5.60;1.80;;;19.70;99.90;;;;;;4975760;28;20207;-75
2023/04/03 00:45:17;;;;;;;10.27;3.47;;;19.70;99.90;;;;;;4975659;28;20227;-77
2023/04/03 00:47:48;;;;;;;19.60;6.15;;;19.80;99.90;;;;;;4975848;28;20214;-76
2023/04/03 00:50:19;;;;;;;5.03;2.13;;;19.90;99.90;;;;;;4975332;28;20203;-75
2023/04/03 00:52:53;;;;;;;8.32;2.20;;;20.00;99.90;;;;;;4975507;28;20196;-79
2023/04/03 00:55:25;;;;;;;5.22;1.75;;;20.00;99.90;;;;;;4974795;28;20644;-76
2023/04/03 00:57:57;;;;;;;5.40;1.52;;;20.10;99.90;;;;;;4975533;28;20691;-76
2023/04/03 01:00:29;;;;;;;5.82;1.70;;;20.20;99.90;;;;;;4975432;28;20667;-75
2023/04/03 01:03:00;;;;;;;3.42;1.30;;;20.20;99.90;;;;;;4975094;28;20368;-76
2023/04/03 01:05:31;;;;;;;2.97;1.10;;;20.20;99.90;;;;;;4975041;28;20283;-78
2023/04/03 01:08:04;;;;;;;5.70;1.40;;;20.20;99.90;;;;;;4971745;28;20570;-76
2023/04/03 01:10:35;;;;;;;5.47;1.65;;;20.40;99.90;;;;;;4972207;28;20219;-76
2023/04/03 01:13:24;;;;;;;5.07;1.20;;;20.40;99.90;;;;;;4973784;28;20184;-77
2023/04/03 01:15:56;;;;;;;3.80;1.10;;;20.60;99.90;;;;;;4974866;28;20196;-77
2023/04/03 01:18:28;;;;;;;3.80;0.73;;;20.60;99.90;;;;;;4975145;28;20640;-78
2023/04/03 01:21:21;;;;;;;3.88;0.95;;;20.90;99.90;;;;;;4972958;28;20211;-77
2023/04/03 01:24:11;;;;;;;6.13;1.10;;;20.80;99.90;;;;;;4974697;28;20299;-78
2023/04/03 01:26:43;;;;;;;5.65;1.10;;;21.00;99.90;;;;;;4974927;28;20200;-78
2023/04/03 01:29:14;;;;;;;4.63;1.05;;;21.30;99.90;;;;;;4972154;28;20237;-79
2023/04/03 01:31:55;;;;;;;2.15;0.90;;;21.50;99.90;;;;;;4973374;28;20200;-79
2023/04/03 01:34:26;;;;;;;4.78;1.10;;;21.80;99.90;;;;;;4974053;28;20196;-78
2023/04/03 01:36:57;;;;;;;4.38;0.93;;;21.90;99.90;;;;;;4973518;28;20249;-78
2023/04/03 01:39:28;;;;;;;3.58;1.00;;;22.20;99.90;;;;;;4971192;28;20572;-79
2023/04/03 01:42:00;;;;;;;5.03;1.05;;;22.40;99.90;;;;;;4969094;28;20555;-78
2023/04/03 01:44:31;;;;;;;6.25;1.20;;;22.40;99.90;;;;;;4970774;28;20776;-79
2023/04/03 01:47:04;;;;;;;2.95;0.70;;;22.50;99.90;;;;;;4971349;28;20568;-80
2023/04/03 01:49:35;;;;;;;2.78;0.90;;;22.80;99.90;;;;;;4972999;28;20200;-78
2023/04/03 01:52:06;;;;;;;6.70;1.00;;;23.00;99.90;;;;;;4972875;28;20211;-79
2023/04/03 01:54:37;;;;;;;5.10;1.15;;;23.10;99.90;;;;;;4970765;28;20655;-81
2023/04/03 01:57:08;;;;;;;4.93;0.88;;;23.30;99.90;;;;;;4974706;28;20534;-85
2023/04/03 01:59:39;;;;;;;4.88;1.05;;;23.40;99.90;;;;;;4968706;28;20204;-84
2023/04/03 02:02:14;;;;;;;4.28;1.20;;;23.40;99.90;;;;;;4972765;28;20244;-84
2023/04/03 02:04:45;;;;;;;5.18;0.95;;;23.60;99.90;;;;;;4974034;28;20216;-83
2023/04/03 02:07:16;;;;;;;6.00;1.20;;;23.70;99.90;;;;;;4979326;28;20568;-79
2023/04/03 02:09:47;;;;;;;4.45;1.17;;;23.60;99.90;;;;;;4981153;28;20196;-82
2023/04/03 02:12:18;;;;;;;5.22;1.00;;;23.60;99.90;;;;;;4980048;28;20200;-80
2023/04/03 02:14:49;;;;;;;5.13;1.42;;;23.50;99.90;;;;;;4980935;28;20192;-83
2023/04/03 02:17:24;;;;;;;7.32;0.93;;;23.60;99.90;;;;;;4980030;28;20188;-82
2023/04/03 02:19:55;;;;;;;5.05;0.93;;;23.60;99.90;;;;;;4980756;28;20196;-84
2023/04/03 02:22:26;;;;;;;6.50;0.80;;;23.70;99.90;;;;;;4979605;28;20200;-84
2023/04/03 02:24:58;;;;;;;2.85;0.77;;;23.70;99.90;;;;;;4977749;28;20228;-80
2023/04/03 02:27:29;;;;;;;4.43;0.80;;;23.70;99.90;;;;;;4980144;28;20203;-85
2023/04/03 02:30:00;;;;;;;6.25;1.27;;;23.80;99.90;;;;;;4980097;28;20287;-86
2023/04/03 02:32:33;;;;;;;4.78;0.75;;;23.80;99.90;;;;;;4980029;28;20690;-85
2023/04/03 02:35:04;;;;;;;4.93;0.98;;;23.80;99.90;;;;;;4979983;28;20196;-85
2023/04/03 02:37:35;;;;;;;5.57;0.95;;;23.80;99.90;;;;;;4978854;28;20201;-87
2023/04/03 02:40:07;;;;;;;3.30;0.80;;;23.80;99.90;;;;;;4980531;28;20200;-85
2023/04/03 02:42:38;;;;;;;5.05;0.90;;;23.80;99.90;;;;;;4980702;28;20640;-90
2023/04/03 02:45:11;;;;;;;4.65;0.93;;;23.80;99.90;;;;;;4978871;28;20568;-84
2023/04/03 02:47:44;;;;;;;5.20;0.90;;;23.80;99.90;;;;;;4980456;28;20644;-80
2023/04/03 02:50:15;;;;;;;5.15;1.17;;;23.90;99.90;;;;;;4980644;28;20670;-84
2023/04/03 02:52:46;;;;;;;5.15;1.10;;;24.00;99.90;;;;;;4979190;28;21076;-83
2023/04/03 02:55:18;;;;;;;5.72;0.70;;;24.10;99.90;;;;;;4978689;28;20211;-87
2023/04/03 02:57:49;;;;;;;4.45;0.80;;;24.10;99.90;;;;;;4979455;28;20204;-86
2023/04/03 03:00:21;;;;;;;4.57;0.90;;;24.00;99.90;;;;;;4982878;28;20196;-82
2023/04/03 03:02:55;;;;;;;6.38;0.90;;;23.90;99.90;;;;;;4979274;28;20630;-83
2023/04/03 03:05:27;;;;;;;5.20;0.70;;;23.90;99.90;;;;;;4979851;28;20231;-83
2023/04/03 03:07:58;;;;;;;3.63;0.60;;;24.00;99.90;;;;;;4978506;28;20200;-86
2023/04/03 03:10:30;;;;;;;2.88;0.60;;;24.00;99.90;;;;;;4980654;28;20196;-86
2023/04/03 03:13:01;;;;;;;3.90;0.80;;;23.90;99.90;;;;;;4979234;28;20562;-83
2023/04/03 03:15:32;;;;;;;3.05;0.93;;;23.80;99.90;;;;;;4979347;28;20215;-84
2023/04/03 03:18:05;;;;;;;2.33;0.55;;;23.80;99.90;;;;;;4977128;28;20661;-83
2023/04/03 03:20:36;;;;;;;3.85;0.82;;;23.70;99.90;;;;;;4976934;28;20211;-80
2023/04/03 03:23:07;;;;;;;3.33;0.93;;;23.40;99.90;;;;;;4975658;28;20200;-82
2023/04/03 03:25:41;;;;;;;6.47;0.90;;;23.10;99.90;;;;;;4957954;29;20227;-86
2023/04/03 03:28:13;;;;;;;3.38;0.80;;;23.20;99.90;;;;;;4958024;29;20196;-83
2023/04/03 03:30:44;;;;;;;7.55;0.90;;;23.20;99.90;;;;;;4961025;28;20193;-86
2023/04/03 03:33:17;;;;;;;4.40;0.82;;;23.10;99.90;;;;;;4976401;28;20203;-88
2023/04/03 03:35:49;;;;;;;4.95;0.90;;;22.80;99.90;;;;;;4966229;28;20204;-87
2023/04/03 03:38:20;;;;;;;5.30;0.70;;;22.60;99.90;;;;;;4958689;28;20193;-84
2023/04/03 03:40:52;;;;;;;5.30;0.77;;;22.60;99.90;;;;;;4977043;28;20189;-84
2023/04/03 03:43:25;;;;;;;4.53;1.02;;;22.60;99.90;;;;;;4976042;28;20204;-86
2023/04/03 03:45:58;;;;;;;4.35;0.85;;;22.70;99.90;;;;;;4975559;28;20223;-86
2023/04/03 03:48:31;;;;;;;2.75;0.70;;;22.90;99.90;;;;;;4976236;28;20651;-86
2023/04/03 03:51:02;;;;;;;5.15;0.85;;;23.00;99.90;;;;;;4975445;28;20196;-85
2023/04/03 03:53:33;;;;;;;7.75;1.00;;;23.20;99.90;;;;;;4975227;28;20205;-86
2023/04/03 03:56:04;;;;;;;4.57;0.85;;;23.10;99.90;;;;;;4974804;28;20244;-87
2023/04/03 03:58:35;;;;;;;3.88;0.80;;;22.90;99.90;;;;;;4976694;28;20201;-87
2023/04/03 04:01:07;;;;;;;3.47;0.70;;;22.70;99.90;;;;;;4976749;28;20228;-87
2023/04/03 04:03:40;;;;;;;5.97;1.20;;;22.60;99.90;;;;;;4969407;28;20322;-82
2023/04/03 04:06:12;;;;;;;5.63;1.00;;;22.50;99.90;;;;;;4957106;28;20707;-85
2023/04/03 04:08:43;;;;;;;9.30;1.20;;;22.50;99.90;;;;;;4976425;28;20215;-83
2023/04/03 04:11:14;;;;;;;5.03;0.95;;;22.70;99.90;;;;;;4976089;28;20204;-86
2023/04/03 04:13:45;;;;;;;5.60;0.90;;;22.80;99.90;;;;;;4975424;28;20226;-86
2023/04/03 04:16:16;;;;;;;3.40;0.80;;;22.90;99.90;;;;;;4974353;28;20215;-85
2023/04/03 04:18:49;;;;;;;5.22;1.00;;;23.00;99.90;;;;;;4972710;28;20196;-88
2023/04/03 04:21:20;;;;;;;6.82;0.80;;;23.00;99.90;;;;;;4965462;28;20208;-86
2023/04/03 04:23:51;;;;;;;4.72;0.90;;;23.10;99.90;;;;;;4973131;28;20554;-83
2023/04/03 04:26:24;;;;;;;5.18;0.60;;;23.30;99.90;;;;;;4973859;28;20564;-85
2023/04/03 04:28:55;;;;;;;7.57;0.80;;;23.40;99.90;;;;;;4967148;28;20259;-83
2023/04/03 04:31:26;;;;;;;4.70;0.75;;;23.40;99.90;;;;;;4971565;28;20656;-87
2023/04/03 04:34:01;;;;;;;6.80;0.82;;;23.30;99.90;;;;;;4972126;28;20211;-86
2023/04/03 04:36:32;;;;;;;7.38;0.80;;;23.30;99.90;;;;;;4973935;28;20200;-86
2023/04/03 04:39:03;;;;;;;4.75;0.65;;;23.10;99.90;;;;;;4974697;28;20660;-86
2023/04/03 04:41:34;;;;;;;3.65;0.73;;;22.90;99.90;;;;;;4975992;28;20204;-83
2023/04/03 04:44:05;;;;;;;6.15;0.63;;;22.90;99.90;;;;;;4975640;28;20200;-86
2023/04/03 04:46:36;;;;;;;6.30;1.63;;;22.90;99.90;;;;;;4976119;28;20232;-84
2023/04/03 04:49:09;;;;;;;4.70;0.80;;;22.90;99.90;;;;;;4975692;28;20192;-84
2023/04/03 04:51:40;;;;;;;3.70;0.80;;;23.00;99.90;;;;;;4975539;28;20577;-81
2023/04/03 04:54:11;;;;;;;2.78;0.70;;;23.00;99.90;;;;;;4975404;28;20657;-82
2023/04/03 04:56:42;;;;;;;4.65;0.90;;;23.10;99.90;;;;;;4974084;28;20582;-81
2023/04/03 04:59:13;;;;;;;4.97;1.08;;;23.10;99.90;;;;;;4968036;28;20570;-84
2023/04/03 05:01:44;;;;;;;5.43;0.90;;;23.10;99.90;;;;;;4957349;28;20241;-82
2023/04/03 05:04:19;;;;;;;6.88;0.80;;;23.00;99.90;;;;;;4974877;28;20200;-85
2023/04/03 05:06:50;;;;;;;5.55;0.90;;;23.00;99.90;;;;;;4970155;28;20211;-84
2023/04/03 05:09:22;;;;;;;6.25;0.90;;;23.00;99.90;;;;;;4974095;28;20200;-83
2023/04/03 05:11:53;;;;;;;4.15;0.70;;;23.10;99.90;;;;;;4973093;28;20204;-82
2023/04/03 05:14:24;;;;;;;6.82;0.80;;;23.00;99.90;;;;;;4970694;28;20207;-85
2023/04/03 05:16:55;;;;;;;4.40;0.88;;;22.90;99.90;;;;;;4971783;28;20205;-88
2023/04/03 05:19:28;;;;;;;4.72;0.80;;;22.80;99.90;;;;;;4973375;28;20207;-85
2023/04/03 05:21:59;;;;;;;4.63;0.68;;;22.90;99.90;;;;;;4974221;28;20192;-83
2023/04/03 05:24:30;;;;;;;2.35;0.57;;;22.70;99.90;;;;;;4972856;28;20573;-85
2023/04/03 05:27:02;;;;;;;5.47;0.82;;;22.60;99.90;;;;;;4974063;28;20730;-86
2023/04/03 05:29:33;;;;;;;5.05;0.77;;;22.40;99.90;;;;;;4972873;28;20220;-85
2023/04/03 05:32:04;;;;;;;6.28;0.95;;;22.30;99.90;;;;;;4973386;28;20659;-86
2023/04/03 05:34:37;;;;;;;5.13;0.85;;;22.20;99.90;;;;;;4971602;28;20200;-86
2023/04/03 05:37:08;;;;;;;5.45;0.82;;;22.20;99.90;;;;;;4973583;28;20204;-89
2023/04/03 05:39:40;;;;;;;8.25;1.00;;;22.20;99.90;;;;;;4974998;28;20219;-86
2023/04/03 05:42:11;;;;;;;4.35;0.73;;;22.20;99.90;;;;;;4973994;28;20208;-87
2023/04/03 05:44:43;;;;;;;6.88;0.82;;;22.10;99.90;;;;;;4974404;28;20196;-88
2023/04/03 05:47:14;;;;;;;3.92;0.70;;;22.10;99.90;;;;;;4974015;28;20204;-83
2023/04/03 05:49:47;;;;;;;2.80;0.60;;;22.00;99.90;;;;;;4973772;28;20196;-84
2023/04/03 05:52:24;;;;;;;8.85;1.10;;;22.10;99.90;;;;;;4961465;28;20216;-88
2023/04/03 05:54:55;;;;;;;1.92;0.73;;;22.20;99.90;;;;;;4973080;28;20215;-87
2023/04/03 05:57:26;;;;;;;4.35;0.73;;;22.20;99.90;;;;;;4974410;28;20200;-82
2023/04/03 05:59:57;;;;;;;3.25;0.60;;;22.30;99.90;;;;;;4972511;28;20211;-88
2023/04/03 06:02:29;;;;;;;7.75;1.38;;;22.40;99.90;;;;;;4972649;28;20239;-86
2023/04/03 06:05:02;;;;;;;4.53;0.77;;;22.50;99.90;;;;;;4973072;28;20243;-83
2023/04/03 06:07:33;;;;;;;8.02;1.08;;;22.50;99.90;;;;;;4972299;28;20239;-87
2023/04/03 06:10:05;;;;;;;4.28;0.70;;;22.50;99.90;;;;;;4966714;28;20204;-83
2023/04/03 06:12:36;;;;;;;4.93;0.70;;;22.40;99.90;;;;;;4971643;28;20200;-86
2023/04/03 06:15:07;;;;;;;8.00;1.00;;;22.40;99.90;;;;;;4970524;28;20204;-81
2023/04/03 06:17:39;;;;;;;5.28;0.73;;;22.20;99.90;;;;;;4969284;28;20196;-88
2023/04/03 06:20:13;;;;;;;8.15;0.80;;;22.00;99.90;;;;;;4974972;28;20193;-85
2023/04/03 06:22:44;;;;;;;5.95;0.85;;;21.80;99.90;;;;;;4969496;28;20204;-84
2023/04/03 06:25:17;;;;;;;5.15;0.77;;;21.60;99.90;;;;;;4972923;28;20661;-84
2023/04/03 06:27:49;;;;;;;3.60;0.85;;;21.50;99.90;;;;;;4972378;28;20200;-88
2023/04/03 06:30:20;;;;;;;7.35;0.98;;;21.40;99.90;;;;;;4972036;28;20564;-84
2023/04/03 06:32:53;;;;;;;4.10;0.70;;;21.30;99.90;;;;;;4971684;28;20204;-85
2023/04/03 06:35:26;;;;;;;3.63;0.70;;;21.30;99.90;;;;;;4962780;28;20610;-88
2023/04/03 06:37:57;;;;;;;6.65;0.80;;;21.20;99.90;;;;;;4973721;28;20567;-91
2023/04/03 06:40:29;;;;;;;5.95;1.00;;;21.30;99.90;;;;;;4970045;28;20197;-86
2023/04/03 06:43:00;;;;;;;5.32;0.85;;;21.30;99.90;;;;;;4971757;28;20200;-86
2023/04/03 06:45:31;;;;;;;4.55;0.90;;;21.30;99.90;;;;;;4969382;28;20220;-88
2023/04/03 06:48:02;;;;;;;7.30;1.30;;;21.40;99.90;;;;;;4962515;28;20245;-81
2023/04/03 06:50:35;;;;;;;5.22;0.80;;;21.40;99.90;;;;;;4971744;28;20250;-88
2023/04/03 06:53:06;;;;;;;7.18;0.93;;;21.40;99.90;;;;;;4974522;28;20211;-91
2023/04/03 06:55:38;;;;;;;5.43;0.82;;;21.50;99.90;;;;;;4978345;28;20559;-90
2023/04/03 06:58:09;;;;;;;6.68;1.13;;;21.50;99.90;;;;;;4978294;28;20212;-87
2023/04/03 07:00:40;;;;;;;5.53;0.73;;;21.40;99.90;;;;;;4975771;28;20196;-88
2023/04/03 07:03:11;;;;;;;3.22;0.77;;;21.30;99.90;;;;;;4975471;28;20240;-85
2023/04/03 07:05:44;;;;;;;5.50;0.90;;;21.30;99.90;;;;;;4976790;28;20212;-87
2023/04/03 07:08:15;;;;;;;6.45;1.27;;;21.20;99.90;;;;;;4976763;28;20258;-89
2023/04/03 07:10:46;;;;;;;7.93;1.10;;;21.20;99.90;;;;;;4976429;28;20730;-87
2023/04/03 07:13:17;;;;;;;3.25;0.70;;;21.20;99.90;;;;;;4977629;28;20204;-89
2023/04/03 07:15:50;;;;;;;7.47;0.73;;;21.10;99.90;;;;;;4975456;28;20196;-86
2023/04/03 07:18:21;;;;;;;5.28;0.95;;;21.10;99.90;;;;;;4976138;28;20196;-88
2023/04/03 07:20:54;;;;;;;6.20;0.80;;;21.00;99.90;;;;;;4975661;28;20208;-86
2023/04/03 07:23:26;;;;;;;4.97;1.15;;;21.00;99.90;;;;;;4975106;28;20211;-88
2023/04/03 07:25:57;;;;;;;4.43;0.88;;;21.00;99.90;;;;;;4976088;28;20628;-90
2023/04/03 07:28:29;;;;;;;7.18;1.13;;;20.90;99.90;;;;;;4977289;28;20701;-90
2023/04/03 07:31:07;;;;;;;6.00;1.33;;;20.90;99.90;;;;;;4965610;28;20197;-86
2023/04/03 07:33:41;;;;;;;6.40;1.30;;;20.90;99.90;;;;;;4975625;28;20204;-85
2023/04/03 07:36:16;;;;;;;7.65;1.13;;;20.80;99.90;;;;;;4973050;28;20211;-85
2023/04/03 07:38:48;;;;;;;6.20;1.05;;;20.80;99.90;;;;;;4975022;28;20192;-87
2023/04/03 07:41:22;;;;;;;5.53;1.45;;;20.70;99.90;;;;;;4974816;28;20212;-87
2023/04/03 07:43:53;;;;;;;5.53;1.35;;;20.70;99.90;;;;;;4975517;28;20205;-84
2023/04/03 07:46:24;;;;;;;4.13;1.25;;;20.70;99.90;;;;;;4976965;28;20220;-87
2023/04/03 07:48:55;;;;;;;7.78;1.45;;;20.70;99.90;;;;;;4975192;28;20211;-87
2023/04/03 07:51:29;;;;;;;6.45;1.40;;;20.60;99.90;;;;;;4975086;28;20211;-88
2023/04/03 07:54:00;;;;;;;4.60;1.10;;;20.60;99.90;;;;;;4967210;28;20203;-85
2023/04/03 07:56:31;;;;;;;9.27;1.45;;;20.50;99.90;;;;;;4975155;28;20192;-89
2023/04/03 07:59:04;;;;;;;5.57;1.20;;;20.50;99.90;;;;;;4980539;23;20239;-89
2023/04/03 08:01:35;;;;;;;4.50;1.05;;;20.40;99.90;;;;;;4964847;28;20207;-85
2023/04/03 08:04:07;;;;;;;7.30;1.60;;;20.40;99.90;;;;;;4973599;28;20208;-84
2023/04/03 08:06:40;;;;;;;5.63;1.50;;;20.30;99.90;;;;;;4972770;28;20671;-85
2023/04/03 08:09:11;;;;;;;4.10;1.20;;;20.40;99.90;;;;;;4975380;28;20223;-85
2023/04/03 08:11:43;;;;;;;7.55;1.50;;;20.30;99.90;;;;;;4965275;28;20193;-82
2023/04/03 08:14:16;;;;;;;7.75;1.90;;;20.20;99.90;;;;;;4973954;28;20192;-88
2023/04/03 08:16:47;;;;;;;5.20;1.33;;;20.20;99.90;;;;;;4968213;28;20288;-90
2023/04/03 08:19:19;;;;;;;4.43;1.40;;;20.10;99.90;;;;;;4970859;28;20200;-89
2023/04/03 08:21:52;;;;;;;4.90;1.40;;;20.10;99.90;;;;;;4972906;28;20200;-89
2023/04/03 08:24:23;;;;;;;7.63;1.67;;;20.10;99.90;;;;;;4974099;28;20192;-89
2023/04/03 08:26:54;;;;;;;6.82;1.40;;;20.10;99.90;;;;;;4975056;28;20223;-89
2023/04/03 08:29:28;;;;;;;5.43;1.20;;;20.00;99.90;;;;;;4975113;28;20208;-87
2023/04/03 08:32:00;;;;;;;5.72;1.17;;;20.00;99.90;;;;;;4974024;28;20227;-83
2023/04/03 08:34:31;;;;;;;4.28;1.17;;;19.90;99.90;;;;;;4975069;28;20223;-89
2023/04/03 08:37:05;;;;;;;6.60;1.50;;;19.90;99.90;;;;;;4970580;28;20204;-88
2023/04/03 08:39:36;;;;;;;4.63;1.30;;;19.90;99.90;;;;;;4975006;28;20203;-83
2023/04/03 08:42:16;;;;;;;6.35;1.48;;;19.90;99.90;;;;;;4975350;28;20211;-88
2023/04/03 08:44:54;;;;;;;7.60;1.40;;;19.80;99.90;;;;;;4972694;28;20206;-90
2023/04/03 08:47:31;;;;;;;7.75;1.45;;;19.80;99.90;;;;;;4975759;28;20223;-89
2023/04/03 08:50:04;;;;;;;4.80;1.50;;;19.80;99.90;;;;;;4975677;28;20251;-88
2023/04/03 08:52:41;;;;;;;5.18;1.38;;;19.90;99.90;;;;;;4975596;28;20223;-87
2023/04/03 08:55:23;;;;;;;7.00;1.42;;;19.90;99.90;;;;;;4970453;28;20632;-88
2023/04/03 08:58:01;;;;;;;7.50;1.73;;;19.90;99.90;;;;;;4955340;29;20236;-89
2023/04/03 09:00:37;;;;;;;7.07;1.77;;;19.90;99.90;;;;;;4955460;29;20205;-85
2023/04/03 09:03:14;;;;;;;4.47;1.27;;;19.90;99.90;;;;;;4952380;29;20661;-87
2023/04/03 09:05:50;;;;;;;8.25;1.48;;;19.90;99.90;;;;;;4952926;29;20534;-84
2023/04/03 09:08:29;;;;;;;11.25;1.13;;;20.00;99.90;;;;;;4950231;29;20205;-83
2023/04/03 09:11:14;;;;;;;4.13;1.40;;;20.00;99.90;;;;;;4950953;29;20212;-86
2023/04/03 09:13:52;;;;;;;6.03;1.42;;;20.10;99.90;;;;;;4952522;29;20697;-83
2023/04/03 09:16:38;;;;;;;7.68;1.17;;;20.10;99.90;;;;;;4953304;28;20285;-82
2023/04/03 09:19:18;;;;;;;5.93;1.50;;;20.10;99.90;;;;;;4951238;29;20205;-82
2023/04/03 09:21:50;;;;;;;11.02;1.20;;;20.20;99.90;;;;;;4952375;29;20197;-86
2023/04/03 09:24:25;;;;;;;6.15;1.00;;;20.20;99.90;;;;;;4954883;28;20204;-86
2023/04/03 09:27:02;;;;;;;6.03;0.95;;;20.20;99.90;;;;;;4953452;29;20239;-83
2023/04/03 09:29:42;;;;;;;4.05;0.90;;;20.20;99.90;;;;;;4953962;29;20201;-88
2023/04/03 09:32:28;;;;;;;3.47;0.80;;;20.20;99.90;;;;;;4954231;29;20205;-83
2023/04/03 09:35:04;;;;;;;5.70;1.00;;;20.20;99.90;;;;;;4953857;29;20196;-88
2023/04/03 09:37:42;;;;;;;7.07;1.13;;;20.20;99.90;;;;;;4953551;29;20197;-86
2023/04/03 09:40:38;;;;;;;7.03;0.85;;;20.10;99.90;;;;;;4953870;29;20236;-88
2023/04/03 09:43:28;;;;;;;4.68;1.02;;;20.10;99.90;;;;;;4954743;29;20712;-84
2023/04/03 09:46:18;;;;;;;6.85;1.17;;;20.10;99.90;;;;;;4952589;29;20267;-88
2023/04/03 09:48:57;;;;;;;5.65;1.05;;;20.10;99.90;;;;;;4954923;29;20261;-87
2023/04/03 09:51:30;;;;;;;7.68;1.60;;;20.10;99.90;;;;;;4951522;29;20211;-88
2023/04/03 09:54:02;;;;;;;10.55;1.55;;;20.10;99.90;;;;;;4950951;29;20200;-88
2023/04/03 09:56:35;;;;;;;5.90;1.40;;;20.00;99.90;;;;;;4952905;29;20204;-86
2023/04/03 09:59:18;;;;;;;8.07;1.33;;;20.10;99.90;;;;;;4952126;28;20248;-87
2023/04/03 10:02:01;;;;;;;8.10;1.25;;;20.10;99.90;;;;;;4950675;29;20216;-87
2023/04/03 10:04:42;;;;;;;3.75;0.75;;;20.00;99.90;;;;;;4952577;29;20200;-88
2023/04/03 10:07:32;;;;;;;4.00;0.85;;;20.00;99.90;;;;;;4951488;29;20220;-87
2023/04/03 10:10:05;;;;;;;3.70;0.70;;;20.10;99.90;;;;;;4949452;29;20209;-88
2023/04/03 10:12:38;;;;;;;3.85;0.90;;;20.10;99.90;;;;;;4952751;28;20560;-88
2023/04/03 10:15:16;;;;;;;6.75;0.90;;;20.10;99.90;;;;;;4952654;29;20652;-87
2023/04/03 10:17:57;;;;;;;6.00;1.05;;;20.10;99.90;;;;;;4945341;28;20201;-87
2023/04/03 10:20:37;;;;;;;5.40;0.77;;;20.10;99.90;;;;;;4947898;29;20209;-87
2023/04/03 10:23:21;;;;;;;3.13;0.70;;;20.10;99.90;;;;;;4952792;29;20208;-88
2023/04/03 10:26:02;;;;;;;3.92;0.85;;;20.10;99.90;;;;;;4953095;28;20207;-87
2023/04/03 10:28:46;;;;;;;7.25;0.90;;;20.10;99.90;;;;;;4950574;28;20268;-86
2023/04/03 10:31:24;;;;;;;6.47;0.82;;;20.10;99.90;;;;;;4939967;29;20216;-89
2023/04/03 10:34:06;;;;;;;6.28;1.00;;;20.10;99.90;;;;;;4956368;29;20200;-87
2023/04/03 10:36:46;;;;;;;3.67;0.95;;;20.10;99.90;;;;;;4955615;29;20655;-88
2023/04/03 10:39:29;;;;;;;4.55;1.00;;;20.10;99.90;;;;;;4957796;29;20196;-88
2023/04/03 10:42:07;;;;;;;2.67;0.70;;;20.00;99.90;;;;;;4942938;29;20201;-86
2023/04/03 10:45:05;;;;;;;3.97;0.90;;;20.00;99.90;;;;;;4954574;29;20197;-88
2023/04/03 10:47:45;;;;;;;7.70;1.10;;;19.90;99.90;;;;;;4958480;29;20239;-87
2023/04/03 10:50:31;;;;;;;5.95;0.90;;;19.90;99.90;;;;;;4958334;29;20629;-89
2023/04/03 10:53:10;;;;;;;4.05;0.80;;;19.80;99.90;;;;;;4957293;29;20664;-88
2023/04/03 10:55:48;;;;;;;3.65;0.75;;;19.80;99.90;;;;;;4958292;29;20215;-87
2023/04/03 10:58:24;;;;;;;4.50;0.70;;;19.70;99.90;;;;;;4957666;28;20240;-88
2023/04/03 11:01:02;;;;;;;2.75;0.60;;;19.70;99.90;;;;;;4956144;29;20653;-87
2023/04/03 11:03:40;;;;;;;5.25;0.93;;;19.70;99.90;;;;;;4958439;29;20212;-87
2023/04/03 11:06:17;;;;;;;4.03;0.90;;;19.60;99.90;;;;;;4958287;29;20224;-88
2023/04/03 11:08:56;;;;;;;1.17;0.55;;;19.50;99.90;;;;;;4958169;29;20224;-88
2023/04/03 11:11:32;;;;;;;5.90;0.98;;;19.50;99.90;;;;;;4958499;29;20269;-88
2023/04/03 11:14:07;;;;;;;4.07;1.00;;;19.40;99.90;;;;;;4957618;29;20195;-89
2023/04/03 11:16:45;;;;;;;3.53;0.90;;;19.30;99.90;;;;;;4957980;29;20188;-89
2023/04/03 11:19:23;;;;;;;6.40;0.90;;;19.20;99.90;;;;;;4950879;29;20200;-89
2023/04/03 11:22:00;;;;;;;4.57;0.80;;;19.20;99.90;;;;;;4957893;29;20211;-89
2023/04/03 11:24:34;;;;;;;4.10;0.85;;;19.10;99.90;;;;;;4952358;29;20207;-82
2023/04/03 11:27:07;;;;;;;5.05;1.20;;;19.10;99.90;;;;;;4957247;29;20212;-89
2023/04/03 11:29:43;;;;;;;4.85;0.88;;;19.00;99.90;;;;;;4955820;28;20212;-88
2023/04/03 11:32:38;;;;;;;3.17;1.10;;;19.00;99.90;;;;;;4957147;29;20209;-89
2023/04/03 11:35:11;;;;;;;5.90;0.90;;;18.90;99.90;;;;;;4954588;29;20212;-90
2023/04/03 11:37:44;;;;;;;5.35;1.30;;;18.90;99.90;;;;;;4952147;29;20201;-89
2023/04/03 11:40:26;;;;;;;3.15;0.85;;;18.80;99.90;;;;;;4953442;28;20648;-84
2023/04/03 11:43:13;;;;;;;3.10;0.98;;;18.80;99.90;;;;;;4956388;29;20664;-88
2023/04/03 11:45:58;;;;;;;3.67;0.70;;;18.80;99.90;;;;;;4947521;29;20675;-85
2023/04/03 11:48:56;;;;;;;5.72;0.90;;;18.80;99.90;;;;;;4952569;29;20284;-87
2023/04/03 11:51:46;;;;;;;3.17;0.77;;;18.70;99.90;;;;;;4956258;29;20189;-85
2023/04/03 11:54:49;;;;;;;3.88;0.82;;;18.70;99.90;;;;;;4954679;29;20195;-87
2023/04/03 11:58:03;;;;;;;4.10;0.80;;;18.70;99.90;;;;;;4861195;29;20232;-82
2023/04/03 12:00:57;;;;;;;3.35;0.90;;;18.70;99.90;;;;;;4904878;29;20228;-88
2023/04/03 12:04:08;;;;;;;3.15;1.00;;;18.60;99.90;;;;;;4938370;29;20210;-89
2023/04/03 12:07:04;;;;;;;4.60;0.93;;;18.60;99.90;;;;;;4951679;29;20275;-89
2023/04/03 12:10:00;;;;;;;5.03;1.35;;;18.60;99.90;;;;;;4957308;29;20284;-85
2023/04/03 12:12:40;;;;;;;4.40;1.50;;;18.60;99.90;;;;;;4924817;29;20216;-81
2023/04/03 12:15:51;;;;;;;5.22;1.25;;;18.50;99.90;;;;;;4957076;29;20200;-84
2023/04/03 12:18:59;;;;;;;5.00;1.15;;;18.50;99.90;;;;;;4937323;29;20260;-86
2023/04/03 12:22:02;;;;;;;5.85;1.10;;;18.50;99.90;;;;;;4937977;29;20204;-86
2023/04/03 12:24:38;;;;;;;4.63;1.30;;;18.40;99.90;;;;;;4939037;29;20197;-86
2023/04/03 12:27:26;;;;;;;6.95;1.40;;;18.40;99.90;;;;;;4954956;29;20200;-84
2023/04/03 12:30:15;;;;;;;3.50;1.20;;;18.40;99.90;;;;;;4955992;29;20229;-87
2023/04/03 12:33:18;;;;;;;4.93;1.30;;;18.40;99.90;;;;;;4953776;29;20201;-89
2023/04/03 12:36:00;;;;;;;5.53;1.33;;;18.30;99.90;;;;;;4955429;29;20200;-89
2023/04/03 12:39:05;;;;;;;3.97;1.23;;;18.30;99.90;;;;;;4955953;29;20692;-88
2023/04/03 12:41:47;;;;;;;6.05;1.20;;;18.30;99.90;;;;;;4934585;28;20259;-89
2023/04/03 12:44:33;;;;;;;6.15;1.15;;;18.20;99.90;;;;;;4955163;29;20211;-89
2023/04/03 12:47:25;;;;;;;5.85;1.30;;;18.20;99.90;;;;;;4953166;29;20211;-86
2023/04/03 12:49:58;;;;;;;3.42;1.20;;;18.20;99.90;;;;;;4955317;28;20201;-89
2023/04/03 12:52:40;;;;;;;4.68;1.30;;;18.20;99.90;;;;;;4952723;29;20197;-88
2023/04/03 12:55:20;;;;;;;3.83;1.08;;;18.10;99.90;;;;;;4955176;29;20212;-87
2023/04/03 12:57:53;;;;;;;5.00;1.30;;;18.10;99.90;;;;;;4956081;28;20696;-89
2023/04/03 13:00:32;;;;;;;5.18;1.20;;;18.10;99.90;;;;;;4942580;29;20568;-88
2023/04/03 13:03:04;;;;;;;5.97;1.38;;;18.10;99.90;;;;;;4951422;29;20204;-86
2023/04/03 13:05:35;;;;;;;6.85;1.38;;;18.10;99.90;;;;;;4956532;29;20204;-88
2023/04/03 13:08:10;;;;;;;5.55;1.40;;;18.10;99.90;;;;;;4956219;29;20220;-83
2023/04/03 13:10:55;;;;;;;3.75;0.95;;;18.10;99.90;;;;;;4956085;29;20200;-84
2023/04/03 13:13:28;;;;;;;6.68;1.70;;;18.00;99.90;;;;;;4956668;29;20197;-86
2023/04/03 13:15:59;;;;;;;3.35;1.23;;;18.00;99.90;;;;;;4955884;29;20193;-87
2023/04/03 13:18:33;;;;;;;4.45;1.30;;;18.00;99.90;;;;;;4954006;29;20571;-88
2023/04/03 13:21:08;;;;;;;4.80;1.35;;;18.00;99.90;;;;;;4955087;29;20204;-89
2023/04/03 13:23:42;;;;;;;5.57;1.30;;;18.00;99.90;;;;;;4954594;29;20209;-86
2023/04/03 13:26:14;;;;;;;3.83;1.40;;;18.00;99.90;;;;;;4955024;29;20573;-82
2023/04/03 13:28:48;;;;;;;4.65;1.17;;;18.00;99.90;;;;;;4953976;29;20233;-89